createdAt,value
2018-03-31T00:00:33.216Z,32.23
2018-03-31T00:03:00.333Z,32.97
2018-03-31T00:05:27.501Z,38.33
2018-03-31T00:07:54.620Z,33.53
2018-03-31T00:10:21.738Z,38.93
2018-03-31T00:12:48.890Z,36.67
2018-03-31T00:15:16.009Z,32.70
2018-03-31T00:17:43.147Z,31.37
2018-03-31T00:20:10.294Z,29.77
2018-03-31T00:22:37.426Z,34.37
2018-03-31T00:25:04.589Z,33.27
2018-03-31T00:27:31.712Z,35.17
2018-03-31T00:29:58.837Z,35.67
2018-03-31T00:32:26.004Z,33.83
2018-03-31T00:34:53.125Z,37.00
2018-03-31T00:37:20.247Z,35.13
2018-03-31T00:39:47.459Z,31.37
2018-03-31T00:42:14.573Z,33.10
2018-03-31T00:44:41.697Z,32.40
2018-03-31T00:47:08.873Z,30.33
2018-03-31T00:49:36.021Z,31.27
2018-03-31T00:52:03.140Z,35.23
2018-03-31T00:54:30.290Z,35.50
2018-03-31T00:56:57.418Z,35.83
2018-03-31T00:59:24.535Z,31.00
2018-03-31T01:01:51.690Z,33.40
2018-03-31T01:04:18.838Z,32.57
2018-03-31T01:06:46.006Z,31.47
2018-03-31T01:09:13.157Z,32.80
2018-03-31T01:11:40.282Z,34.47
2018-03-31T01:14:07.448Z,35.23
2018-03-31T01:16:34.581Z,34.33
2018-03-31T01:19:01.706Z,33.03
2018-03-31T01:21:28.863Z,31.10
2018-03-31T01:23:55.975Z,33.97
2018-03-31T01:26:23.089Z,36.23
2018-03-31T01:28:50.291Z,30.03
2018-03-31T01:31:17.405Z,35.03
2018-03-31T01:33:44.529Z,34.60
2018-03-31T01:36:11.706Z,31.10
2018-03-31T01:38:38.825Z,31.80
2018-03-31T01:41:05.973Z,33.67
2018-03-31T01:43:33.122Z,33.10
2018-03-31T01:46:00.270Z,36.57
2018-03-31T01:48:27.402Z,34.60
2018-03-31T01:50:54.564Z,30.43
2018-03-31T01:53:21.703Z,34.50
2018-03-31T01:55:48.816Z,31.43
2018-03-31T01:58:15.969Z,30.63
2018-03-31T02:00:43.082Z,32.63
2018-03-31T02:03:10.206Z,33.83
2018-03-31T02:05:37.360Z,31.77
2018-03-31T02:08:04.522Z,31.33
2018-03-31T02:10:31.673Z,29.73
2018-03-31T02:12:58.802Z,38.30
2018-03-31T02:15:25.918Z,35.90
2018-03-31T02:17:53.087Z,35.60
2018-03-31T02:20:20.213Z,33.20
2018-03-31T02:22:47.333Z,32.67
2018-03-31T02:25:14.478Z,34.45
2018-03-31T02:27:41.598Z,33.50
2018-03-31T02:30:08.774Z,31.03
2018-03-31T02:32:35.919Z,33.40
2018-03-31T02:35:03.048Z,33.07
2018-03-31T02:37:30.222Z,31.47
2018-03-31T02:39:57.346Z,29.77
2018-03-31T02:42:24.470Z,35.83
2018-03-31T02:44:51.618Z,34.37
2018-03-31T02:47:18.743Z,34.10
2018-03-31T02:49:45.863Z,32.73
2018-03-31T02:52:13.039Z,35.53
2018-03-31T02:54:40.163Z,30.10
2018-03-31T02:57:07.285Z,34.93
2018-03-31T02:59:34.451Z,33.80
2018-03-31T03:02:01.575Z,31.77
2018-03-31T03:04:28.693Z,37.50
2018-03-31T03:06:55.841Z,33.10
2018-03-31T03:09:23.025Z,32.30
2018-03-31T03:11:50.158Z,35.37
2018-03-31T03:14:17.327Z,31.83
2018-03-31T03:16:44.448Z,32.00
2018-03-31T03:19:11.565Z,33.50
2018-03-31T03:21:38.730Z,33.43
2018-03-31T03:24:05.853Z,35.87
2018-03-31T03:26:32.967Z,29.73
2018-03-31T03:29:00.138Z,33.10
2018-03-31T03:31:27.250Z,33.73
2018-03-31T03:33:54.369Z,31.00
2018-03-31T03:36:21.531Z,30.93
2018-03-31T03:38:48.645Z,33.67
2018-03-31T03:41:15.805Z,34.20
2018-03-31T03:43:42.926Z,29.53
2018-03-31T03:46:10.033Z,33.03
2018-03-31T03:48:37.181Z,31.37
2018-03-31T03:51:04.337Z,32.23
2018-03-31T03:53:31.460Z,31.17
2018-03-31T03:55:58.581Z,26.57
2018-03-31T03:58:25.721Z,32.80
2018-03-31T04:00:52.890Z,30.87
2018-03-31T04:03:20.007Z,29.00
2018-03-31T04:05:47.162Z,29.97
2018-03-31T04:08:14.276Z,31.47
2018-03-31T04:10:41.407Z,28.23
2018-03-31T04:13:08.573Z,29.80
2018-03-31T04:15:35.693Z,28.43
2018-03-31T04:18:02.821Z,30.37
2018-03-31T04:20:29.993Z,29.50
2018-03-31T04:22:57.121Z,27.70
2018-03-31T04:25:24.272Z,27.50
2018-03-31T04:27:51.682Z,31.63
2018-03-31T04:30:18.815Z,31.43
2018-03-31T04:32:46.480Z,32.33
2018-03-31T04:35:13.598Z,30.50
2018-03-31T04:37:40.726Z,27.90
2018-03-31T04:40:07.890Z,30.70
2018-03-31T04:42:35.005Z,30.10
2018-03-31T04:45:02.127Z,30.00
2018-03-31T04:47:29.295Z,29.57
2018-03-31T04:49:56.446Z,30.73
2018-03-31T04:52:23.576Z,32.43
2018-03-31T04:54:50.715Z,32.80
2018-03-31T04:57:17.833Z,30.27
2018-03-31T04:59:44.952Z,28.53
2018-03-31T05:02:12.122Z,31.73
2018-03-31T05:04:39.271Z,34.33
2018-03-31T05:07:06.382Z,31.33
2018-03-31T05:09:33.528Z,31.83
2018-03-31T05:12:00.722Z,33.80
2018-03-31T05:14:27.844Z,32.93
2018-03-31T05:16:54.961Z,32.17
2018-03-31T05:19:22.101Z,35.33
2018-03-31T05:21:49.221Z,39.77
2018-03-31T05:24:16.422Z,30.93
2018-03-31T05:26:43.547Z,30.70
2018-03-31T05:29:10.701Z,29.63
2018-03-31T05:31:37.825Z,36.17
2018-03-31T05:34:04.953Z,35.23
2018-03-31T05:36:32.161Z,30.40
2018-03-31T05:38:59.277Z,34.73
2018-03-31T05:41:26.389Z,29.90
2018-03-31T05:43:53.529Z,33.00
2018-03-31T05:46:20.649Z,35.93
2018-03-31T05:48:47.813Z,30.83
2018-03-31T05:51:14.973Z,38.23
2018-03-31T05:53:42.099Z,33.60
2018-03-31T05:56:09.249Z,31.60
2018-03-31T05:58:36.418Z,30.20
2018-03-31T06:01:03.546Z,32.60
2018-03-31T06:03:30.674Z,33.37
2018-03-31T06:05:57.830Z,30.27
2018-03-31T06:08:24.945Z,31.97
2018-03-31T06:10:52.074Z,35.40
2018-03-31T06:13:19.228Z,33.83
2018-03-31T06:15:46.363Z,31.10
2018-03-31T06:18:13.502Z,32.20
2018-03-31T06:20:40.687Z,32.77
2018-03-31T06:23:07.810Z,30.47
2018-03-31T06:25:34.939Z,30.13
2018-03-31T06:28:02.097Z,28.67
2018-03-31T06:30:29.298Z,31.50
2018-03-31T06:32:56.408Z,28.57
2018-03-31T06:35:23.565Z,36.07
2018-03-31T06:37:50.722Z,34.30
2018-03-31T06:40:17.855Z,28.10
2018-03-31T06:42:44.982Z,31.00
2018-03-31T06:45:12.129Z,29.87
2018-03-31T06:47:39.273Z,35.27
2018-03-31T06:50:06.386Z,33.77
2018-03-31T06:52:33.554Z,28.57
2018-03-31T06:55:00.678Z,32.07
2018-03-31T06:57:27.797Z,35.40
2018-03-31T06:59:54.965Z,42.00
2018-03-31T07:02:22.093Z,36.40
2018-03-31T07:04:49.221Z,32.30
2018-03-31T07:07:16.397Z,35.47
2018-03-31T07:09:43.536Z,37.53
2018-03-31T07:12:10.657Z,33.63
2018-03-31T07:14:37.810Z,32.07
2018-03-31T07:17:04.925Z,37.00
2018-03-31T07:19:32.042Z,33.70
2018-03-31T07:21:59.201Z,36.10
2018-03-31T07:24:26.333Z,33.97
2018-03-31T07:26:53.457Z,37.00
2018-03-31T07:29:20.605Z,39.17
2018-03-31T07:31:47.721Z,36.70
2018-03-31T07:34:14.840Z,36.70
2018-03-31T07:36:42.001Z,34.60
2018-03-31T07:39:09.146Z,34.83
2018-03-31T07:41:36.269Z,37.60
2018-03-31T07:44:03.442Z,35.93
2018-03-31T07:46:30.572Z,44.70
2018-03-31T07:48:57.734Z,36.40
2018-03-31T07:51:24.917Z,35.20
2018-03-31T07:53:52.041Z,37.67
2018-03-31T07:56:19.293Z,36.10
2018-03-31T07:58:46.432Z,41.53
2018-03-31T08:01:13.594Z,36.23
2018-03-31T08:03:40.749Z,35.47
2018-03-31T08:06:07.865Z,34.70
2018-03-31T08:08:35.009Z,36.20
2018-03-31T08:11:02.169Z,34.40
2018-03-31T08:13:29.289Z,34.50
2018-03-31T08:15:56.432Z,36.53
2018-03-31T08:18:23.585Z,31.97
2018-03-31T08:20:50.708Z,35.93
2018-03-31T08:23:17.830Z,39.30
2018-03-31T08:25:44.981Z,36.30
2018-03-31T08:28:13.050Z,36.00
2018-03-31T08:30:40.234Z,37.93
2018-03-31T08:33:07.361Z,39.10
2018-03-31T08:35:34.477Z,38.97
2018-03-31T08:38:01.644Z,42.70
2018-03-31T08:40:32.641Z,36.50
2018-03-31T08:42:59.761Z,39.40
2018-03-31T08:45:26.905Z,36.10
2018-03-31T08:47:54.033Z,35.10
2018-03-31T08:50:21.177Z,38.87
2018-03-31T08:52:48.337Z,40.50
2018-03-31T08:55:15.480Z,41.03
2018-03-31T08:57:42.609Z,44.37
2018-03-31T09:00:09.778Z,40.37
2018-03-31T09:02:36.909Z,38.93
2018-03-31T09:05:04.034Z,43.80
2018-03-31T09:11:01.998Z,43.93
2018-03-31T09:13:29.145Z,41.57
2018-03-31T09:15:56.295Z,41.77
2018-03-31T09:18:23.413Z,47.87
2018-03-31T09:20:50.529Z,45.67
2018-03-31T09:23:17.665Z,43.87
2018-03-31T09:25:44.813Z,48.83
2018-03-31T09:28:11.930Z,45.20
2018-03-31T09:30:39.089Z,45.60
2018-03-31T09:33:06.205Z,47.13
2018-03-31T09:35:33.339Z,49.00
2018-03-31T09:38:00.505Z,45.77
2018-03-31T09:40:27.625Z,50.70
2018-03-31T09:42:54.765Z,46.40
2018-03-31T09:45:21.921Z,42.90
2018-03-31T09:47:49.038Z,48.07
2018-03-31T09:50:16.168Z,44.20
2018-03-31T09:52:43.310Z,42.40
2018-03-31T09:55:10.425Z,44.93
2018-03-31T09:57:37.570Z,44.50
2018-03-31T10:00:04.689Z,46.77
2018-03-31T10:02:32.085Z,43.87
2018-03-31T10:04:59.206Z,48.10
2018-03-31T10:07:26.333Z,46.60
2018-03-31T10:09:53.514Z,55.57
2018-03-31T10:12:20.643Z,49.60
2018-03-31T10:14:47.766Z,49.67
2018-03-31T10:17:14.922Z,51.80
2018-03-31T10:19:42.033Z,47.80
2018-03-31T10:22:09.191Z,44.70
2018-03-31T10:24:36.321Z,45.63
2018-03-31T10:27:03.462Z,43.43
2018-03-31T10:29:30.610Z,39.40
2018-03-31T10:31:57.729Z,43.20
2018-03-31T10:34:24.897Z,42.50
2018-03-31T10:36:52.022Z,46.90
2018-03-31T10:39:19.142Z,39.80
2018-03-31T10:41:46.317Z,41.50
2018-03-31T10:44:13.438Z,40.70
2018-03-31T10:46:40.577Z,46.33
2018-03-31T10:49:07.730Z,43.77
2018-03-31T10:51:34.848Z,45.83
2018-03-31T10:54:01.972Z,44.80
2018-03-31T10:56:29.226Z,44.67
2018-03-31T10:58:56.368Z,40.90
2018-03-31T11:01:23.525Z,44.80
2018-03-31T11:03:50.634Z,43.03
2018-03-31T11:06:17.787Z,39.70
2018-03-31T11:08:44.906Z,45.90
2018-03-31T11:11:12.034Z,42.20
2018-03-31T11:13:39.176Z,45.27
2018-03-31T11:16:06.330Z,40.67
2018-03-31T11:18:33.446Z,44.50
2018-03-31T11:21:00.613Z,46.63
2018-03-31T11:23:27.728Z,46.70
2018-03-31T11:25:54.857Z,44.10
2018-03-31T11:28:22.034Z,38.30
2018-03-31T11:30:49.149Z,42.03
2018-03-31T11:33:16.275Z,40.43
2018-03-31T11:35:43.422Z,43.57
2018-03-31T11:38:10.541Z,42.57
2018-03-31T11:40:37.714Z,45.27
2018-03-31T11:43:04.875Z,41.53
2018-03-31T11:45:32.005Z,44.00
2018-03-31T11:47:59.148Z,46.63
2018-03-31T11:50:26.269Z,47.20
2018-03-31T11:52:53.448Z,48.13
2018-03-31T11:55:20.570Z,46.03
2018-03-31T11:57:47.690Z,44.40
2018-03-31T12:00:14.829Z,45.60
2018-03-31T12:02:41.946Z,43.83
2018-03-31T12:05:09.172Z,42.83
2018-03-31T12:07:36.281Z,45.10
2018-03-31T12:10:03.448Z,43.63
2018-03-31T12:12:30.589Z,41.23
2018-03-31T12:14:57.736Z,46.17
2018-03-31T12:17:24.892Z,43.10
2018-03-31T12:19:52.013Z,43.93
2018-03-31T12:22:19.134Z,42.17
2018-03-31T12:24:46.296Z,45.27
2018-03-31T12:27:13.437Z,46.90
2018-03-31T12:29:40.557Z,42.80
2018-03-31T12:32:07.818Z,42.00
2018-03-31T12:34:34.936Z,44.57
2018-03-31T12:37:02.069Z,42.77
2018-03-31T12:39:29.234Z,44.87
2018-03-31T12:41:56.346Z,47.17
2018-03-31T12:44:23.466Z,44.67
2018-03-31T12:46:50.607Z,42.83
2018-03-31T12:49:17.726Z,51.07
2018-03-31T12:51:44.944Z,47.00
2018-03-31T12:54:12.050Z,45.87
2018-03-31T12:56:39.173Z,44.03
2018-03-31T12:59:06.319Z,43.27
2018-03-31T13:01:33.552Z,45.50
2018-03-31T13:04:00.674Z,46.53
2018-03-31T13:06:27.949Z,44.47
2018-03-31T13:08:55.270Z,41.97
2018-03-31T13:11:22.386Z,45.77
2018-03-31T13:13:49.505Z,49.57
2018-03-31T13:16:16.677Z,45.27
2018-03-31T13:18:43.802Z,46.10
2018-03-31T13:21:10.943Z,47.50
2018-03-31T13:23:38.095Z,48.40
2018-03-31T13:26:05.210Z,48.00
2018-03-31T13:28:32.383Z,47.03
2018-03-31T13:30:59.504Z,45.80
2018-03-31T13:33:26.624Z,41.00
2018-03-31T13:35:53.781Z,42.57
2018-03-31T13:38:20.936Z,47.77
2018-03-31T13:40:48.054Z,51.57
2018-03-31T13:43:15.194Z,47.60
2018-03-31T13:45:42.305Z,47.80
2018-03-31T13:48:09.444Z,49.93
2018-03-31T13:50:36.618Z,46.77
2018-03-31T13:53:03.737Z,50.90
2018-03-31T13:55:30.853Z,49.50
2018-03-31T13:57:58.031Z,45.40
2018-03-31T14:00:25.153Z,45.97
2018-03-31T14:02:52.270Z,47.60
2018-03-31T14:05:19.426Z,47.40
2018-03-31T14:07:46.710Z,50.00
2018-03-31T14:10:13.867Z,50.17
2018-03-31T14:12:40.994Z,50.13
2018-03-31T14:15:08.104Z,54.10
2018-03-31T14:17:35.258Z,49.40
2018-03-31T14:20:02.378Z,49.77
2018-03-31T14:22:29.501Z,52.63
2018-03-31T14:24:56.641Z,54.27
2018-03-31T14:27:23.792Z,52.33
2018-03-31T14:29:50.917Z,56.13
2018-03-31T14:32:18.030Z,56.60
2018-03-31T14:34:45.204Z,49.67
2018-03-31T14:37:12.321Z,54.33
2018-03-31T14:39:39.446Z,56.03
2018-03-31T14:42:06.586Z,54.87
2018-03-31T14:44:33.709Z,56.03
2018-03-31T14:47:00.987Z,56.50
2018-03-31T14:49:28.112Z,55.10
2018-03-31T14:51:55.233Z,54.10
2018-03-31T14:54:22.381Z,57.70
2018-03-31T14:56:49.537Z,51.60
2018-03-31T14:59:16.824Z,56.70
2018-03-31T15:01:43.936Z,49.20
2018-03-31T15:04:11.066Z,56.47
2018-03-31T15:06:38.213Z,63.50
2018-03-31T15:09:05.413Z,59.83
2018-03-31T15:11:32.533Z,62.53
2018-03-31T15:13:59.662Z,59.47
2018-03-31T15:16:26.821Z,57.30
2018-03-31T15:18:53.942Z,63.07
2018-03-31T15:21:21.066Z,64.30
2018-03-31T15:23:49.214Z,62.90
2018-03-31T15:26:16.345Z,63.03
2018-03-31T15:28:43.478Z,62.53
2018-03-31T15:31:10.634Z,66.10
2018-03-31T15:33:37.758Z,62.97
2018-03-31T15:36:04.903Z,65.87
2018-03-31T15:38:32.074Z,59.43
2018-03-31T15:40:59.255Z,64.00
2018-03-31T15:43:26.375Z,55.77
2018-03-31T15:45:53.509Z,61.97
2018-03-31T15:48:20.674Z,62.63
2018-03-31T15:50:47.794Z,64.90
2018-03-31T15:53:14.910Z,64.37
2018-03-31T15:55:42.058Z,70.20
2018-03-31T15:58:09.173Z,75.77
2018-03-31T16:00:36.289Z,68.63
2018-03-31T16:03:03.461Z,76.23
2018-03-31T16:05:30.586Z,78.73
2018-03-31T16:07:57.739Z,71.57
2018-03-31T16:10:25.005Z,71.20
2018-03-31T16:12:52.137Z,74.57
2018-03-31T16:15:19.298Z,78.13
2018-03-31T16:17:46.422Z,72.37
2018-03-31T16:20:13.545Z,68.80
2018-03-31T16:22:40.710Z,70.90
2018-03-31T16:25:07.949Z,63.70
2018-03-31T16:27:35.047Z,77.17
2018-03-31T16:30:02.190Z,70.00
2018-03-31T16:32:29.356Z,69.13
2018-03-31T16:34:56.532Z,78.90
2018-03-31T16:37:23.723Z,67.23
2018-03-31T16:39:50.854Z,72.63
2018-03-31T16:42:17.986Z,72.70
2018-03-31T16:44:45.147Z,73.90
2018-03-31T16:47:12.778Z,70.83
2018-03-31T16:49:39.926Z,71.00
2018-03-31T16:52:07.086Z,73.73
2018-03-31T16:54:34.210Z,73.23
2018-03-31T16:57:01.335Z,77.23
2018-03-31T16:59:28.477Z,76.93
2018-03-31T17:01:55.589Z,70.63
2018-03-31T17:04:22.746Z,69.30
2018-03-31T17:06:49.871Z,70.57
2018-03-31T17:09:16.999Z,71.37
2018-03-31T17:11:44.161Z,70.20
2018-03-31T17:14:11.284Z,75.73
2018-03-31T17:16:38.401Z,66.67
2018-03-31T17:19:05.538Z,66.17
2018-03-31T17:21:32.670Z,74.93
2018-03-31T17:23:59.992Z,74.00
2018-03-31T17:26:27.111Z,75.50
2018-03-31T17:28:54.241Z,84.93
2018-03-31T17:31:21.389Z,75.93
2018-03-31T17:33:48.507Z,76.70
2018-03-31T17:36:15.674Z,77.20
2018-03-31T17:38:42.801Z,89.47
2018-03-31T17:41:09.923Z,84.70
2018-03-31T17:43:37.065Z,84.97
2018-03-31T17:46:04.181Z,87.63
2018-03-31T17:48:31.345Z,84.13
2018-03-31T17:50:58.469Z,84.80
2018-03-31T17:53:25.615Z,83.37
2018-03-31T17:55:52.773Z,84.50
2018-03-31T17:58:19.884Z,94.47
2018-03-31T18:00:46.996Z,94.60
2018-03-31T18:03:14.165Z,91.37
2018-03-31T18:05:41.285Z,91.20
2018-03-31T18:08:08.409Z,93.40
2018-03-31T18:10:35.561Z,97.93
2018-03-31T18:13:02.674Z,94.90
2018-03-31T18:15:29.789Z,89.97
2018-03-31T18:17:56.955Z,95.90
2018-03-31T18:20:24.148Z,95.57
2018-03-31T18:22:51.277Z,98.37
2018-03-31T18:25:18.438Z,101.83
2018-03-31T18:27:45.570Z,96.30
2018-03-31T18:30:12.692Z,104.57
2018-03-31T18:32:39.866Z,107.63
2018-03-31T18:35:07.020Z,100.50
2018-03-31T18:37:34.138Z,94.77
2018-03-31T18:40:01.298Z,101.87
2018-03-31T18:42:28.474Z,105.47
2018-03-31T18:44:55.600Z,106.53
2018-03-31T18:47:22.777Z,111.27
2018-03-31T18:49:49.929Z,115.77
2018-03-31T18:52:17.098Z,116.60
2018-03-31T18:54:44.223Z,118.63
2018-03-31T18:57:11.402Z,115.33
2018-03-31T18:59:38.542Z,127.30
2018-03-31T19:02:05.701Z,126.07
2018-03-31T19:04:32.845Z,134.30
2018-03-31T19:07:00.029Z,131.30
2018-03-31T19:09:27.156Z,133.33
2018-03-31T19:11:54.590Z,135.10
2018-03-31T19:14:21.776Z,137.53
2018-03-31T19:16:54.741Z,140.30
2018-03-31T19:19:21.918Z,151.23
2018-03-31T19:21:49.046Z,161.03
2018-03-31T19:24:16.185Z,135.80
2018-03-31T19:26:43.346Z,140.47
2018-03-31T19:29:10.494Z,146.47
2018-03-31T19:31:37.618Z,139.27
2018-03-31T19:34:04.776Z,149.47
2018-03-31T19:36:31.898Z,142.47
2018-03-31T19:38:59.044Z,152.80
2018-03-31T19:41:26.211Z,130.27
2018-03-31T19:43:53.348Z,144.20
2018-03-31T19:46:20.489Z,137.17
2018-03-31T19:48:47.692Z,141.50
2018-03-31T19:51:14.820Z,129.13
2018-03-31T19:53:41.965Z,122.80
2018-03-31T19:56:09.118Z,119.37
2018-03-31T19:58:36.283Z,116.50
2018-03-31T20:01:03.830Z,114.83
2018-03-31T20:03:30.962Z,118.23
2018-03-31T20:05:58.144Z,110.03
2018-03-31T20:08:25.292Z,117.30
2018-03-31T20:10:52.417Z,110.80
2018-03-31T20:13:19.591Z,113.67
2018-03-31T20:15:46.718Z,104.90
2018-03-31T20:18:13.834Z,99.90
2018-03-31T20:20:40.977Z,106.80
2018-03-31T20:23:08.132Z,105.27
2018-03-31T20:25:35.292Z,95.00
2018-03-31T20:28:02.421Z,90.80
2018-03-31T20:30:29.553Z,87.57
2018-03-31T20:32:56.696Z,95.47
2018-03-31T20:35:23.824Z,94.30
2018-03-31T20:37:50.949Z,88.40
2018-03-31T20:40:18.120Z,100.33
2018-03-31T20:42:45.271Z,86.70
2018-03-31T20:45:12.402Z,83.70
2018-03-31T20:47:39.561Z,89.17
2018-03-31T20:50:06.679Z,95.13
2018-03-31T20:52:33.798Z,87.93
2018-03-31T20:55:00.958Z,91.80
2018-03-31T20:57:28.073Z,87.43
2018-03-31T20:59:55.190Z,97.90
2018-03-31T21:02:22.341Z,88.77
2018-03-31T21:04:49.462Z,90.17
2018-03-31T21:07:16.599Z,92.07
2018-03-31T21:09:43.759Z,88.47
2018-03-31T21:12:10.889Z,94.57
2018-03-31T21:14:38.005Z,100.00
2018-03-31T21:17:05.198Z,101.63
2018-03-31T21:19:32.405Z,106.23
2018-03-31T21:21:59.524Z,88.43
2018-03-31T21:24:26.681Z,97.27
2018-03-31T21:26:53.810Z,108.07
2018-03-31T21:29:20.941Z,100.13
2018-03-31T21:31:48.113Z,94.27
2018-03-31T21:34:15.241Z,102.60
2018-03-31T21:36:42.369Z,91.73
2018-03-31T21:39:09.546Z,86.73
2018-03-31T21:41:36.660Z,76.63
2018-03-31T21:44:03.788Z,82.43
2018-03-31T21:46:30.938Z,72.40
2018-03-31T21:48:58.097Z,80.27
2018-03-31T21:51:25.266Z,82.70
2018-03-31T21:53:52.378Z,73.17
2018-03-31T21:56:19.559Z,79.03
2018-03-31T21:58:46.741Z,72.00
2018-03-31T22:01:13.857Z,76.30
2018-03-31T22:03:40.977Z,76.93
2018-03-31T22:06:08.141Z,72.63
2018-03-31T22:08:35.261Z,77.43
2018-03-31T22:11:02.381Z,68.40
2018-03-31T22:13:35.371Z,64.20
2018-03-31T22:16:02.489Z,64.23
2018-03-31T22:18:29.605Z,50.40
2018-03-31T22:20:56.741Z,54.80
2018-03-31T22:23:23.874Z,49.37
2018-03-31T22:25:51.029Z,54.33
2018-03-31T22:28:18.149Z,54.23
2018-03-31T22:30:45.284Z,58.53
2018-03-31T22:33:12.437Z,52.57
2018-03-31T22:35:39.584Z,47.13
2018-03-31T22:38:06.702Z,44.10
2018-03-31T22:40:33.858Z,44.47
2018-03-31T22:43:00.977Z,38.70
2018-03-31T22:45:28.181Z,47.33
2018-03-31T22:47:55.325Z,52.63
2018-03-31T22:50:22.440Z,48.40
2018-03-31T22:52:49.570Z,43.87
2018-03-31T22:55:16.722Z,46.60
2018-03-31T22:57:43.849Z,43.83
2018-03-31T23:00:10.979Z,50.37
2018-03-31T23:02:38.169Z,45.83
2018-03-31T23:05:05.410Z,44.30
2018-03-31T23:07:32.539Z,42.30
2018-03-31T23:09:59.873Z,48.53
2018-03-31T23:12:26.984Z,43.43
2018-03-31T23:14:54.108Z,43.13
2018-03-31T23:17:21.285Z,46.43
2018-03-31T23:19:48.418Z,40.17
2018-03-31T23:22:15.540Z,38.40
2018-03-31T23:24:42.689Z,44.07
2018-03-31T23:27:09.801Z,35.20
2018-03-31T23:29:36.937Z,36.67
2018-03-31T23:32:04.078Z,35.17
2018-03-31T23:34:31.232Z,39.00
2018-03-31T23:36:58.345Z,35.90
2018-03-31T23:39:25.497Z,34.00
2018-03-31T23:41:52.643Z,35.00
2018-03-31T23:44:19.758Z,30.80
2018-03-31T23:46:46.887Z,33.57
2018-03-31T23:49:14.038Z,31.57
2018-03-31T23:51:41.153Z,28.70
2018-03-31T23:54:08.271Z,29.63
2018-03-31T23:56:35.417Z,29.50
2018-03-31T23:59:02.548Z,24.70
